sensor_id;sensor_type;location;lat;lon;timestamp;temperature;humidity
45807;DHT22;31507;51.494;7.518;2023-07-24T00:00:27;17.60;99.90
45807;DHT22;31507;51.494;7.518;2023-07-24T00:02:53;17.60;99.90
45807;DHT22;31507;51.494;7.518;2023-07-24T00:05:19;17.50;99.90
45807;DHT22;31507;51.494;7.518;2023-07-24T00:07:45;17.50;99.90
45807;DHT22;31507;51.494;7.518;2023-07-24T00:10:10;17.50;99.90
45807;DHT22;31507;51.494;7.518;2023-07-24T00:12:36;17.50;99.90
45807;DHT22;31507;51.494;7.518;2023-07-24T00:15:01;17.50;99.90
45807;DHT22;31507;51.494;7.518;2023-07-24T00:17:27;17.50;99.90
45807;DHT22;31507;51.494;7.518;2023-07-24T00:19:53;17.40;99.90
45807;DHT22;31507;51.494;7.518;2023-07-24T00:22:18;17.40;99.90
45807;DHT22;31507;51.494;7.518;2023-07-24T00:24:44;17.40;99.90
45807;DHT22;31507;51.494;7.518;2023-07-24T00:27:10;17.40;99.90
45807;DHT22;31507;51.494;7.518;2023-07-24T00:29:35;17.40;99.90
45807;DHT22;31507;51.494;7.518;2023-07-24T00:32:01;17.30;99.90
45807;DHT22;31507;51.494;7.518;2023-07-24T00:34:26;17.30;99.90
45807;DHT22;31507;51.494;7.518;2023-07-24T00:36:52;17.30;99.90
45807;DHT22;31507;51.494;7.518;2023-07-24T00:39:17;17.20;99.90
45807;DHT22;31507;51.494;7.518;2023-07-24T00:41:43;17.20;99.90
45807;DHT22;31507;51.494;7.518;2023-07-24T00:44:09;17.20;99.90
45807;DHT22;31507;51.494;7.518;2023-07-24T00:46:35;17.20;99.90
45807;DHT22;31507;51.494;7.518;2023-07-24T00:49:02;17.20;99.90
45807;DHT22;31507;51.494;7.518;2023-07-24T00:51:33;17.20;99.90
45807;DHT22;31507;51.494;7.518;2023-07-24T00:54:01;17.10;99.90
45807;DHT22;31507;51.494;7.518;2023-07-24T00:56:27;17.10;99.90
45807;DHT22;31507;51.494;7.518;2023-07-24T00:58:54;17.20;99.90
45807;DHT22;31507;51.494;7.518;2023-07-24T01:01:23;17.20;99.90
45807;DHT22;31507;51.494;7.518;2023-07-24T01:03:49;17.20;99.90
45807;DHT22;31507;51.494;7.518;2023-07-24T01:06:15;17.20;99.90
45807;DHT22;31507;51.494;7.518;2023-07-24T01:08:40;17.20;99.90
45807;DHT22;31507;51.494;7.518;2023-07-24T01:11:19;17.20;99.90
45807;DHT22;31507;51.494;7.518;2023-07-24T01:13:58;17.20;99.90
45807;DHT22;31507;51.494;7.518;2023-07-24T01:16:36;17.20;99.90
45807;DHT22;31507;51.494;7.518;2023-07-24T01:19:04;17.20;99.90
45807;DHT22;31507;51.494;7.518;2023-07-24T01:21:47;17.20;99.90
45807;DHT22;31507;51.494;7.518;2023-07-24T01:25:23;17.20;99.90
45807;DHT22;31507;51.494;7.518;2023-07-24T01:27:26;17.20;99.90
45807;DHT22;31507;51.494;7.518;2023-07-24T01:29:52;17.20;99.90
45807;DHT22;31507;51.494;7.518;2023-07-24T01:32:19;17.20;99.90
45807;DHT22;31507;51.494;7.518;2023-07-24T01:34:45;17.20;99.90
45807;DHT22;31507;51.494;7.518;2023-07-24T01:37:12;17.20;99.90
45807;DHT22;31507;51.494;7.518;2023-07-24T01:39:42;17.10;99.90
45807;DHT22;31507;51.494;7.518;2023-07-24T01:42:09;17.20;99.90
45807;DHT22;31507;51.494;7.518;2023-07-24T01:44:35;17.20;99.90
45807;DHT22;31507;51.494;7.518;2023-07-24T01:47:00;17.20;99.90
45807;DHT22;31507;51.494;7.518;2023-07-24T01:49:26;17.20;99.90
45807;DHT22;31507;51.494;7.518;2023-07-24T01:51:51;17.20;99.90
45807;DHT22;31507;51.494;7.518;2023-07-24T01:54:17;17.10;99.90
45807;DHT22;31507;51.494;7.518;2023-07-24T01:56:42;17.10;99.90
45807;DHT22;31507;51.494;7.518;2023-07-24T01:59:09;17.00;99.90
45807;DHT22;31507;51.494;7.518;2023-07-24T02:01:34;17.00;99.90
45807;DHT22;31507;51.494;7.518;2023-07-24T02:04:01;16.90;99.90
45807;DHT22;31507;51.494;7.518;2023-07-24T02:06:26;16.90;99.90
45807;DHT22;31507;51.494;7.518;2023-07-24T02:08:52;16.90;99.90
45807;DHT22;31507;51.494;7.518;2023-07-24T02:11:18;16.90;99.90
45807;DHT22;31507;51.494;7.518;2023-07-24T02:13:44;16.90;99.90
45807;DHT22;31507;51.494;7.518;2023-07-24T02:16:11;16.90;99.90
45807;DHT22;31507;51.494;7.518;2023-07-24T02:18:38;16.90;99.90
45807;DHT22;31507;51.494;7.518;2023-07-24T02:21:03;17.00;99.90
45807;DHT22;31507;51.494;7.518;2023-07-24T02:23:29;16.90;99.90
45807;DHT22;31507;51.494;7.518;2023-07-24T02:25:54;17.00;99.90
45807;DHT22;31507;51.494;7.518;2023-07-24T02:28:20;17.00;99.90
45807;DHT22;31507;51.494;7.518;2023-07-24T02:30:47;17.10;99.90
45807;DHT22;31507;51.494;7.518;2023-07-24T02:33:13;17.10;99.90
45807;DHT22;31507;51.494;7.518;2023-07-24T02:35:39;17.20;99.90
45807;DHT22;31507;51.494;7.518;2023-07-24T02:38:05;17.10;99.90
45807;DHT22;31507;51.494;7.518;2023-07-24T02:40:31;17.10;99.90
45807;DHT22;31507;51.494;7.518;2023-07-24T02:42:57;17.10;99.90
45807;DHT22;31507;51.494;7.518;2023-07-24T02:45:22;17.10;99.90
45807;DHT22;31507;51.494;7.518;2023-07-24T02:47:48;17.10;99.90
45807;DHT22;31507;51.494;7.518;2023-07-24T02:50:14;17.10;99.90
45807;DHT22;31507;51.494;7.518;2023-07-24T02:52:39;17.10;99.90
45807;DHT22;31507;51.494;7.518;2023-07-24T02:55:05;17.20;99.90
45807;DHT22;31507;51.494;7.518;2023-07-24T02:57:31;17.10;99.90
45807;DHT22;31507;51.494;7.518;2023-07-24T02:59:57;17.10;99.90
45807;DHT22;31507;51.494;7.518;2023-07-24T03:02:22;17.10;99.90
45807;DHT22;31507;51.494;7.518;2023-07-24T03:04:48;17.20;99.90
45807;DHT22;31507;51.494;7.518;2023-07-24T03:07:13;17.20;99.90
45807;DHT22;31507;51.494;7.518;2023-07-24T03:09:39;17.20;99.90
45807;DHT22;31507;51.494;7.518;2023-07-24T03:12:05;17.20;99.90
45807;DHT22;31507;51.494;7.518;2023-07-24T03:14:31;17.30;99.90
45807;DHT22;31507;51.494;7.518;2023-07-24T03:16:56;17.30;99.90
45807;DHT22;31507;51.494;7.518;2023-07-24T03:19:22;17.30;99.90
45807;DHT22;31507;51.494;7.518;2023-07-24T03:21:47;17.40;99.90
45807;DHT22;31507;51.494;7.518;2023-07-24T03:24:13;17.40;99.90
45807;DHT22;31507;51.494;7.518;2023-07-24T03:26:39;17.30;99.90
45807;DHT22;31507;51.494;7.518;2023-07-24T03:29:05;17.40;99.90
45807;DHT22;31507;51.494;7.518;2023-07-24T03:31:30;17.30;99.90
45807;DHT22;31507;51.494;7.518;2023-07-24T03:33:56;17.20;99.90
45807;DHT22;31507;51.494;7.518;2023-07-24T03:36:22;17.30;99.90
45807;DHT22;31507;51.494;7.518;2023-07-24T03:38:47;17.30;99.90
45807;DHT22;31507;51.494;7.518;2023-07-24T03:41:13;17.20;99.90
45807;DHT22;31507;51.494;7.518;2023-07-24T03:43:39;17.30;99.90
45807;DHT22;31507;51.494;7.518;2023-07-24T03:46:04;17.20;99.90
45807;DHT22;31507;51.494;7.518;2023-07-24T03:48:30;17.30;99.90
45807;DHT22;31507;51.494;7.518;2023-07-24T03:50:59;17.20;99.90
45807;DHT22;31507;51.494;7.518;2023-07-24T03:53:27;17.20;99.90
45807;DHT22;31507;51.494;7.518;2023-07-24T03:55:53;17.30;99.90
45807;DHT22;31507;51.494;7.518;2023-07-24T03:58:19;17.20;99.90
45807;DHT22;31507;51.494;7.518;2023-07-24T04:00:46;17.30;99.90
45807;DHT22;31507;51.494;7.518;2023-07-24T04:03:11;17.30;99.90
45807;DHT22;31507;51.494;7.518;2023-07-24T04:05:37;17.30;99.90
45807;DHT22;31507;51.494;7.518;2023-07-24T04:08:03;17.30;99.90
45807;DHT22;31507;51.494;7.518;2023-07-24T04:10:29;17.30;99.90
45807;DHT22;31507;51.494;7.518;2023-07-24T04:12:56;17.30;99.90
45807;DHT22;31507;51.494;7.518;2023-07-24T04:15:22;17.30;99.90
45807;DHT22;31507;51.494;7.518;2023-07-24T04:17:48;17.30;99.90
45807;DHT22;31507;51.494;7.518;2023-07-24T04:20:14;17.30;99.90
45807;DHT22;31507;51.494;7.518;2023-07-24T04:22:39;17.30;99.90
45807;DHT22;31507;51.494;7.518;2023-07-24T04:25:05;17.30;99.90
45807;DHT22;31507;51.494;7.518;2023-07-24T04:27:31;17.40;99.90
45807;DHT22;31507;51.494;7.518;2023-07-24T04:29:57;17.40;99.90
45807;DHT22;31507;51.494;7.518;2023-07-24T04:32:22;17.40;99.90
45807;DHT22;31507;51.494;7.518;2023-07-24T04:34:48;17.40;99.90
45807;DHT22;31507;51.494;7.518;2023-07-24T04:37:13;17.40;99.90
45807;DHT22;31507;51.494;7.518;2023-07-24T04:39:39;17.50;99.90
45807;DHT22;31507;51.494;7.518;2023-07-24T04:42:05;17.50;99.90
45807;DHT22;31507;51.494;7.518;2023-07-24T04:44:31;17.50;99.90
45807;DHT22;31507;51.494;7.518;2023-07-24T04:46:59;17.60;99.90
45807;DHT22;31507;51.494;7.518;2023-07-24T04:49:28;17.60;99.90
45807;DHT22;31507;51.494;7.518;2023-07-24T04:51:54;17.60;99.90
45807;DHT22;31507;51.494;7.518;2023-07-24T04:54:20;17.70;99.90
45807;DHT22;31507;51.494;7.518;2023-07-24T04:56:45;17.70;99.90
45807;DHT22;31507;51.494;7.518;2023-07-24T04:59:11;17.70;99.90
45807;DHT22;31507;51.494;7.518;2023-07-24T05:01:37;17.70;99.90
45807;DHT22;31507;51.494;7.518;2023-07-24T05:04:02;17.70;99.90
45807;DHT22;31507;51.494;7.518;2023-07-24T05:06:28;17.70;99.90
45807;DHT22;31507;51.494;7.518;2023-07-24T05:08:54;17.70;99.90
45807;DHT22;31507;51.494;7.518;2023-07-24T05:11:19;17.70;99.90
45807;DHT22;31507;51.494;7.518;2023-07-24T05:13:45;17.60;99.90
45807;DHT22;31507;51.494;7.518;2023-07-24T05:16:11;17.60;99.90
45807;DHT22;31507;51.494;7.518;2023-07-24T05:18:36;17.70;99.90
45807;DHT22;31507;51.494;7.518;2023-07-24T05:21:02;17.70;99.90
45807;DHT22;31507;51.494;7.518;2023-07-24T05:23:27;17.70;99.90
45807;DHT22;31507;51.494;7.518;2023-07-24T05:26:00;17.80;99.90
45807;DHT22;31507;51.494;7.518;2023-07-24T05:28:27;17.80;99.90
45807;DHT22;31507;51.494;7.518;2023-07-24T05:30:52;17.60;99.90
45807;DHT22;31507;51.494;7.518;2023-07-24T05:33:18;17.50;99.90
45807;DHT22;31507;51.494;7.518;2023-07-24T05:35:44;17.30;99.90
45807;DHT22;31507;51.494;7.518;2023-07-24T05:38:09;17.30;99.90
45807;DHT22;31507;51.494;7.518;2023-07-24T05:40:35;17.30;99.90
45807;DHT22;31507;51.494;7.518;2023-07-24T05:43:01;17.30;99.90
45807;DHT22;31507;51.494;7.518;2023-07-24T05:45:27;17.30;99.90
45807;DHT22;31507;51.494;7.518;2023-07-24T05:47:53;17.40;99.90
45807;DHT22;31507;51.494;7.518;2023-07-24T05:50:19;17.50;99.90
45807;DHT22;31507;51.494;7.518;2023-07-24T05:52:44;17.60;99.90
45807;DHT22;31507;51.494;7.518;2023-07-24T05:55:10;17.60;99.90
45807;DHT22;31507;51.494;7.518;2023-07-24T05:57:36;17.70;99.90
45807;DHT22;31507;51.494;7.518;2023-07-24T06:00:06;17.70;99.90
45807;DHT22;31507;51.494;7.518;2023-07-24T06:02:31;17.70;99.90
45807;DHT22;31507;51.494;7.518;2023-07-24T06:04:57;17.70;99.90
45807;DHT22;31507;51.494;7.518;2023-07-24T06:07:23;17.70;99.90
45807;DHT22;31507;51.494;7.518;2023-07-24T06:09:49;17.70;99.90
45807;DHT22;31507;51.494;7.518;2023-07-24T06:12:14;17.70;99.90
45807;DHT22;31507;51.494;7.518;2023-07-24T06:14:40;17.70;99.90
45807;DHT22;31507;51.494;7.518;2023-07-24T06:17:06;17.80;99.90
45807;DHT22;31507;51.494;7.518;2023-07-24T06:19:31;17.90;99.90
45807;DHT22;31507;51.494;7.518;2023-07-24T06:21:57;18.00;99.90
45807;DHT22;31507;51.494;7.518;2023-07-24T06:24:22;18.00;99.90
45807;DHT22;31507;51.494;7.518;2023-07-24T06:26:49;18.00;99.90
45807;DHT22;31507;51.494;7.518;2023-07-24T06:29:15;18.00;99.90
45807;DHT22;31507;51.494;7.518;2023-07-24T06:31:41;18.00;99.90
45807;DHT22;31507;51.494;7.518;2023-07-24T06:34:06;18.30;99.90
45807;DHT22;31507;51.494;7.518;2023-07-24T06:36:32;18.70;99.90
45807;DHT22;31507;51.494;7.518;2023-07-24T06:38:59;18.90;99.90
45807;DHT22;31507;51.494;7.518;2023-07-24T06:41:25;18.70;99.90
45807;DHT22;31507;51.494;7.518;2023-07-24T06:43:51;18.40;99.90
45807;DHT22;31507;51.494;7.518;2023-07-24T06:46:17;18.40;99.90
45807;DHT22;31507;51.494;7.518;2023-07-24T06:48:42;18.40;99.90
45807;DHT22;31507;51.494;7.518;2023-07-24T06:51:08;18.30;99.90
45807;DHT22;31507;51.494;7.518;2023-07-24T06:53:33;18.30;99.90
45807;DHT22;31507;51.494;7.518;2023-07-24T06:55:59;18.30;99.90
45807;DHT22;31507;51.494;7.518;2023-07-24T06:58:25;18.40;99.90
45807;DHT22;31507;51.494;7.518;2023-07-24T07:00:50;18.40;99.90
45807;DHT22;31507;51.494;7.518;2023-07-24T07:03:16;18.50;99.90
45807;DHT22;31507;51.494;7.518;2023-07-24T07:05:42;18.60;99.90
45807;DHT22;31507;51.494;7.518;2023-07-24T07:08:07;18.60;99.90
45807;DHT22;31507;51.494;7.518;2023-07-24T07:10:33;18.80;99.90
45807;DHT22;31507;51.494;7.518;2023-07-24T07:12:59;19.10;99.90
45807;DHT22;31507;51.494;7.518;2023-07-24T07:15:24;19.60;99.90
45807;DHT22;31507;51.494;7.518;2023-07-24T07:17:50;20.10;99.90
45807;DHT22;31507;51.494;7.518;2023-07-24T07:20:16;20.30;99.90
45807;DHT22;31507;51.494;7.518;2023-07-24T07:22:41;20.30;99.90
45807;DHT22;31507;51.494;7.518;2023-07-24T07:25:07;20.30;99.90
45807;DHT22;31507;51.494;7.518;2023-07-24T07:27:33;20.50;99.90
45807;DHT22;31507;51.494;7.518;2023-07-24T07:29:58;20.60;99.90
45807;DHT22;31507;51.494;7.518;2023-07-24T07:32:24;20.40;99.90
45807;DHT22;31507;51.494;7.518;2023-07-24T07:34:50;20.30;99.90
45807;DHT22;31507;51.494;7.518;2023-07-24T07:37:16;20.20;99.90
45807;DHT22;31507;51.494;7.518;2023-07-24T07:39:41;20.10;99.90
45807;DHT22;31507;51.494;7.518;2023-07-24T07:42:07;20.20;99.90
45807;DHT22;31507;51.494;7.518;2023-07-24T07:44:33;20.10;99.90
45807;DHT22;31507;51.494;7.518;2023-07-24T07:46:58;20.00;99.90
45807;DHT22;31507;51.494;7.518;2023-07-24T07:49:24;20.00;99.90
45807;DHT22;31507;51.494;7.518;2023-07-24T07:51:49;20.00;99.90
45807;DHT22;31507;51.494;7.518;2023-07-24T07:54:15;20.00;99.90
45807;DHT22;31507;51.494;7.518;2023-07-24T07:56:41;20.00;99.90
45807;DHT22;31507;51.494;7.518;2023-07-24T07:59:07;19.80;99.90
45807;DHT22;31507;51.494;7.518;2023-07-24T08:01:33;19.80;99.90
45807;DHT22;31507;51.494;7.518;2023-07-24T08:03:59;19.90;99.90
45807;DHT22;31507;51.494;7.518;2023-07-24T08:06:24;19.90;99.90
45807;DHT22;31507;51.494;7.518;2023-07-24T08:08:50;19.80;99.90
45807;DHT22;31507;51.494;7.518;2023-07-24T08:11:16;19.80;99.90
45807;DHT22;31507;51.494;7.518;2023-07-24T08:13:41;19.80;99.90
45807;DHT22;31507;51.494;7.518;2023-07-24T08:16:14;19.90;99.90
45807;DHT22;31507;51.494;7.518;2023-07-24T08:18:45;19.80;99.90
45807;DHT22;31507;51.494;7.518;2023-07-24T08:21:11;19.90;99.90
45807;DHT22;31507;51.494;7.518;2023-07-24T08:23:37;19.90;99.90
45807;DHT22;31507;51.494;7.518;2023-07-24T08:26:02;19.90;99.90
45807;DHT22;31507;51.494;7.518;2023-07-24T08:28:28;20.00;99.90
45807;DHT22;31507;51.494;7.518;2023-07-24T08:30:58;20.10;99.90
45807;DHT22;31507;51.494;7.518;2023-07-24T08:33:24;20.40;99.90
45807;DHT22;31507;51.494;7.518;2023-07-24T08:36:04;20.50;99.90
45807;DHT22;31507;51.494;7.518;2023-07-24T08:38:30;20.50;99.90
45807;DHT22;31507;51.494;7.518;2023-07-24T08:41:07;20.60;99.90
45807;DHT22;31507;51.494;7.518;2023-07-24T08:43:34;21.30;99.90
45807;DHT22;31507;51.494;7.518;2023-07-24T08:46:01;22.00;99.90
45807;DHT22;31507;51.494;7.518;2023-07-24T08:48:31;22.50;99.90
45807;DHT22;31507;51.494;7.518;2023-07-24T08:51:04;22.90;99.90
45807;DHT22;31507;51.494;7.518;2023-07-24T08:53:30;22.90;99.90
45807;DHT22;31507;51.494;7.518;2023-07-24T08:55:59;23.10;99.90
45807;DHT22;31507;51.494;7.518;2023-07-24T08:58:25;23.30;99.90
45807;DHT22;31507;51.494;7.518;2023-07-24T09:00:51;23.50;99.90
45807;DHT22;31507;51.494;7.518;2023-07-24T09:03:18;23.10;99.90
45807;DHT22;31507;51.494;7.518;2023-07-24T09:05:44;22.90;99.90
45807;DHT22;31507;51.494;7.518;2023-07-24T09:08:10;22.60;99.90
45807;DHT22;31507;51.494;7.518;2023-07-24T09:10:36;22.50;99.90
45807;DHT22;31507;51.494;7.518;2023-07-24T09:13:02;22.20;99.90
45807;DHT22;31507;51.494;7.518;2023-07-24T09:15:39;21.60;99.90
45807;DHT22;31507;51.494;7.518;2023-07-24T09:18:04;21.30;99.90
45807;DHT22;31507;51.494;7.518;2023-07-24T09:20:41;21.10;99.90
45807;DHT22;31507;51.494;7.518;2023-07-24T09:23:08;21.00;99.90
45807;DHT22;31507;51.494;7.518;2023-07-24T09:25:37;20.80;99.90
45807;DHT22;31507;51.494;7.518;2023-07-24T09:28:13;20.80;99.90
45807;DHT22;31507;51.494;7.518;2023-07-24T09:30:40;20.90;99.90
45807;DHT22;31507;51.494;7.518;2023-07-24T09:33:06;21.10;99.90
45807;DHT22;31507;51.494;7.518;2023-07-24T09:35:32;21.20;99.90
45807;DHT22;31507;51.494;7.518;2023-07-24T09:38:10;21.30;99.90
45807;DHT22;31507;51.494;7.518;2023-07-24T09:40:40;21.10;99.90
45807;DHT22;31507;51.494;7.518;2023-07-24T09:43:22;20.80;99.90
45807;DHT22;31507;51.494;7.518;2023-07-24T09:45:49;20.60;99.90
45807;DHT22;31507;51.494;7.518;2023-07-24T09:48:16;20.60;99.90
45807;DHT22;31507;51.494;7.518;2023-07-24T09:50:44;20.60;99.90
45807;DHT22;31507;51.494;7.518;2023-07-24T09:53:38;20.90;99.90
45807;DHT22;31507;51.494;7.518;2023-07-24T09:56:05;20.90;99.90
45807;DHT22;31507;51.494;7.518;2023-07-24T09:58:33;20.70;99.90
45807;DHT22;31507;51.494;7.518;2023-07-24T10:01:07;20.50;99.90
45807;DHT22;31507;51.494;7.518;2023-07-24T10:03:53;20.40;99.90
45807;DHT22;31507;51.494;7.518;2023-07-24T10:06:20;20.40;99.90
45807;DHT22;31507;51.494;7.518;2023-07-24T10:08:47;20.60;99.90
45807;DHT22;31507;51.494;7.518;2023-07-24T10:11:14;20.90;99.90
45807;DHT22;31507;51.494;7.518;2023-07-24T10:13:43;21.10;99.90
45807;DHT22;31507;51.494;7.518;2023-07-24T10:16:09;21.20;99.90
45807;DHT22;31507;51.494;7.518;2023-07-24T10:18:41;21.10;99.90
45807;DHT22;31507;51.494;7.518;2023-07-24T10:21:08;21.00;99.90
45807;DHT22;31507;51.494;7.518;2023-07-24T10:23:41;21.10;99.90
45807;DHT22;31507;51.494;7.518;2023-07-24T10:26:08;21.20;99.90
45807;DHT22;31507;51.494;7.518;2023-07-24T10:28:35;21.20;99.90
45807;DHT22;31507;51.494;7.518;2023-07-24T10:31:19;21.10;99.90
45807;DHT22;31507;51.494;7.518;2023-07-24T10:33:45;20.90;99.90
45807;DHT22;31507;51.494;7.518;2023-07-24T10:36:11;21.00;99.90
45807;DHT22;31507;51.494;7.518;2023-07-24T10:38:42;20.90;99.90
45807;DHT22;31507;51.494;7.518;2023-07-24T10:41:10;20.80;99.90
45807;DHT22;31507;51.494;7.518;2023-07-24T10:43:58;20.80;99.90
45807;DHT22;31507;51.494;7.518;2023-07-24T10:46:36;20.70;99.90
45807;DHT22;31507;51.494;7.518;2023-07-24T10:49:02;20.60;99.90
45807;DHT22;31507;51.494;7.518;2023-07-24T10:51:29;20.70;99.90
45807;DHT22;31507;51.494;7.518;2023-07-24T10:53:55;21.10;99.90
45807;DHT22;31507;51.494;7.518;2023-07-24T10:56:20;21.60;99.90
45807;DHT22;31507;51.494;7.518;2023-07-24T10:58:46;21.90;99.90
45807;DHT22;31507;51.494;7.518;2023-07-24T11:01:11;22.00;99.90
45807;DHT22;31507;51.494;7.518;2023-07-24T11:03:41;22.00;99.90
45807;DHT22;31507;51.494;7.518;2023-07-24T11:06:13;22.00;99.90
45807;DHT22;31507;51.494;7.518;2023-07-24T11:08:39;22.20;99.90
45807;DHT22;31507;51.494;7.518;2023-07-24T11:11:06;22.30;99.90
45807;DHT22;31507;51.494;7.518;2023-07-24T11:13:31;22.30;99.90
45807;DHT22;31507;51.494;7.518;2023-07-24T11:16:04;22.20;99.90
45807;DHT22;31507;51.494;7.518;2023-07-24T11:18:30;22.20;99.90
45807;DHT22;31507;51.494;7.518;2023-07-24T11:20:56;22.40;99.90
45807;DHT22;31507;51.494;7.518;2023-07-24T11:23:22;22.60;99.90
45807;DHT22;31507;51.494;7.518;2023-07-24T11:25:52;22.30;99.90
45807;DHT22;31507;51.494;7.518;2023-07-24T11:28:18;22.00;99.90
45807;DHT22;31507;51.494;7.518;2023-07-24T11:30:44;21.70;99.90
45807;DHT22;31507;51.494;7.518;2023-07-24T11:33:11;21.50;99.90
45807;DHT22;31507;51.494;7.518;2023-07-24T11:35:38;21.10;99.90
45807;DHT22;31507;51.494;7.518;2023-07-24T11:38:05;20.80;99.90
45807;DHT22;31507;51.494;7.518;2023-07-24T11:42:58;20.40;99.90
45807;DHT22;31507;51.494;7.518;2023-07-24T11:45:23;20.20;99.90
45807;DHT22;31507;51.494;7.518;2023-07-24T11:47:49;19.90;99.90
45807;DHT22;31507;51.494;7.518;2023-07-24T11:50:16;19.70;99.90
45807;DHT22;31507;51.494;7.518;2023-07-24T11:55:15;19.40;99.90
45807;DHT22;31507;51.494;7.518;2023-07-24T11:57:41;19.20;99.90
45807;DHT22;31507;51.494;7.518;2023-07-24T12:00:19;19.10;99.90
45807;DHT22;31507;51.494;7.518;2023-07-24T12:02:45;19.00;99.90
45807;DHT22;31507;51.494;7.518;2023-07-24T12:05:11;18.90;99.90
45807;DHT22;31507;51.494;7.518;2023-07-24T12:07:37;18.80;99.90
45807;DHT22;31507;51.494;7.518;2023-07-24T12:10:04;18.80;99.90
45807;DHT22;31507;51.494;7.518;2023-07-24T12:12:37;18.70;99.90
45807;DHT22;31507;51.494;7.518;2023-07-24T12:15:03;18.60;99.90
45807;DHT22;31507;51.494;7.518;2023-07-24T12:17:29;18.50;99.90
45807;DHT22;31507;51.494;7.518;2023-07-24T12:19:54;18.40;99.90
45807;DHT22;31507;51.494;7.518;2023-07-24T12:22:20;18.20;99.90
45807;DHT22;31507;51.494;7.518;2023-07-24T12:24:46;18.00;99.90
45807;DHT22;31507;51.494;7.518;2023-07-24T12:27:12;17.80;99.90
45807;DHT22;31507;51.494;7.518;2023-07-24T12:29:38;17.60;99.90
45807;DHT22;31507;51.494;7.518;2023-07-24T12:32:03;17.50;99.90
45807;DHT22;31507;51.494;7.518;2023-07-24T12:34:29;17.30;99.90
45807;DHT22;31507;51.494;7.518;2023-07-24T12:36:55;16.60;99.90
45807;DHT22;31507;51.494;7.518;2023-07-24T12:39:20;16.20;99.90
45807;DHT22;31507;51.494;7.518;2023-07-24T12:41:46;16.10;99.90
45807;DHT22;31507;51.494;7.518;2023-07-24T12:44:11;16.10;99.90
45807;DHT22;31507;51.494;7.518;2023-07-24T12:46:37;16.30;99.90
45807;DHT22;31507;51.494;7.518;2023-07-24T12:49:04;16.40;99.90
45807;DHT22;31507;51.494;7.518;2023-07-24T12:51:30;16.50;99.90
45807;DHT22;31507;51.494;7.518;2023-07-24T12:53:56;16.70;99.90
45807;DHT22;31507;51.494;7.518;2023-07-24T12:56:21;16.80;99.90
45807;DHT22;31507;51.494;7.518;2023-07-24T12:58:47;16.90;99.90
45807;DHT22;31507;51.494;7.518;2023-07-24T13:01:12;16.80;99.90
45807;DHT22;31507;51.494;7.518;2023-07-24T13:03:38;16.80;99.90
45807;DHT22;31507;51.494;7.518;2023-07-24T13:06:04;16.60;99.90
45807;DHT22;31507;51.494;7.518;2023-07-24T13:08:29;16.50;99.90
45807;DHT22;31507;51.494;7.518;2023-07-24T13:10:55;16.60;99.90
45807;DHT22;31507;51.494;7.518;2023-07-24T13:13:21;17.00;99.90
45807;DHT22;31507;51.494;7.518;2023-07-24T13:15:50;17.50;99.90
45807;DHT22;31507;51.494;7.518;2023-07-24T13:18:17;17.70;99.90
45807;DHT22;31507;51.494;7.518;2023-07-24T13:20:42;17.60;99.90
45807;DHT22;31507;51.494;7.518;2023-07-24T13:23:08;17.60;99.90
45807;DHT22;31507;51.494;7.518;2023-07-24T13:25:34;18.10;99.90
45807;DHT22;31507;51.494;7.518;2023-07-24T13:27:59;18.30;99.90
45807;DHT22;31507;51.494;7.518;2023-07-24T13:30:25;18.70;99.90
45807;DHT22;31507;51.494;7.518;2023-07-24T13:32:50;19.10;99.90
45807;DHT22;31507;51.494;7.518;2023-07-24T13:35:16;19.70;99.90
45807;DHT22;31507;51.494;7.518;2023-07-24T13:37:42;20.20;99.90
45807;DHT22;31507;51.494;7.518;2023-07-24T13:40:08;20.60;99.90
45807;DHT22;31507;51.494;7.518;2023-07-24T13:42:34;20.70;99.90
45807;DHT22;31507;51.494;7.518;2023-07-24T13:45:00;21.20;99.90
45807;DHT22;31507;51.494;7.518;2023-07-24T13:47:26;21.50;99.90
45807;DHT22;31507;51.494;7.518;2023-07-24T13:49:51;21.80;99.90
45807;DHT22;31507;51.494;7.518;2023-07-24T13:52:17;22.10;99.90
45807;DHT22;31507;51.494;7.518;2023-07-24T13:54:43;22.40;99.90
45807;DHT22;31507;51.494;7.518;2023-07-24T13:57:08;22.40;99.90
45807;DHT22;31507;51.494;7.518;2023-07-24T13:59:35;22.60;99.90
45807;DHT22;31507;51.494;7.518;2023-07-24T14:02:03;22.90;99.90
45807;DHT22;31507;51.494;7.518;2023-07-24T14:04:30;23.10;99.90
45807;DHT22;31507;51.494;7.518;2023-07-24T14:06:55;22.70;99.90
45807;DHT22;31507;51.494;7.518;2023-07-24T14:09:22;22.10;99.90
45807;DHT22;31507;51.494;7.518;2023-07-24T14:11:49;21.60;99.90
45807;DHT22;31507;51.494;7.518;2023-07-24T14:14:18;21.10;99.90
45807;DHT22;31507;51.494;7.518;2023-07-24T14:16:44;21.20;99.90
45807;DHT22;31507;51.494;7.518;2023-07-24T14:19:12;21.50;99.90
45807;DHT22;31507;51.494;7.518;2023-07-24T14:21:37;22.20;99.90
45807;DHT22;31507;51.494;7.518;2023-07-24T14:24:03;22.70;99.90
45807;DHT22;31507;51.494;7.518;2023-07-24T14:26:29;23.20;99.90
45807;DHT22;31507;51.494;7.518;2023-07-24T14:28:54;23.60;99.90
45807;DHT22;31507;51.494;7.518;2023-07-24T14:31:20;23.40;99.90
45807;DHT22;31507;51.494;7.518;2023-07-24T14:33:46;23.40;99.90
45807;DHT22;31507;51.494;7.518;2023-07-24T14:36:11;23.70;99.90
45807;DHT22;31507;51.494;7.518;2023-07-24T14:38:37;23.70;99.90
45807;DHT22;31507;51.494;7.518;2023-07-24T14:41:02;23.10;99.90
45807;DHT22;31507;51.494;7.518;2023-07-24T14:43:28;22.80;99.90
45807;DHT22;31507;51.494;7.518;2023-07-24T14:45:53;22.60;99.90
45807;DHT22;31507;51.494;7.518;2023-07-24T14:48:19;22.20;99.90
45807;DHT22;31507;51.494;7.518;2023-07-24T14:50:45;21.90;99.90
45807;DHT22;31507;51.494;7.518;2023-07-24T14:53:11;21.50;99.90
45807;DHT22;31507;51.494;7.518;2023-07-24T14:55:37;21.40;99.90
45807;DHT22;31507;51.494;7.518;2023-07-24T14:58:02;21.30;99.90
45807;DHT22;31507;51.494;7.518;2023-07-24T15:00:29;21.10;99.90
45807;DHT22;31507;51.494;7.518;2023-07-24T15:02:55;21.20;99.90
45807;DHT22;31507;51.494;7.518;2023-07-24T15:05:21;21.10;99.90
45807;DHT22;31507;51.494;7.518;2023-07-24T15:07:46;21.10;99.90
45807;DHT22;31507;51.494;7.518;2023-07-24T15:10:13;20.90;99.90
45807;DHT22;31507;51.494;7.518;2023-07-24T15:12:38;20.80;99.90
45807;DHT22;31507;51.494;7.518;2023-07-24T15:15:05;20.60;99.90
45807;DHT22;31507;51.494;7.518;2023-07-24T15:17:31;20.40;99.90
45807;DHT22;31507;51.494;7.518;2023-07-24T15:19:57;20.20;99.90
45807;DHT22;31507;51.494;7.518;2023-07-24T15:22:23;20.00;99.90
45807;DHT22;31507;51.494;7.518;2023-07-24T15:24:48;19.70;99.90
45807;DHT22;31507;51.494;7.518;2023-07-24T15:27:14;19.40;99.90
45807;DHT22;31507;51.494;7.518;2023-07-24T15:29:40;19.30;99.90
45807;DHT22;31507;51.494;7.518;2023-07-24T15:32:06;19.10;99.90